Glen, Nebraska
Current Conditions -  °F | °C
As of 6:53 PM on Saturday 22 Nov 2014 (Local Time) from KCDR Reporting Station
Broken Clouds Broken Clouds  
Wind Chill: 41°   Ceiling: 8500
Heat Index: 46°   Visibility: 10mi
Dew Point: 32°   Wind: 10mph
Humidity: 58%   Direction: 230°SW
Pressure: 29.47"   Gusts: NA
Location:  42.7426°N, 103.391°W
Report Text: KCDR 230153Z AUTO 23009KT 10SM BKN085 08/00 A2947 RMK AO2 SLP991 T00780000
Loading
Personal Weather Stations






























Interactive Weather Map New forecast layout! Learn more

10-Day Weather Forecast

Advertisements
Track Severe Weather on mobile